sensor_id;sensor_type;location;lat;lon;timestamp;P1;durP1;ratioP1;P2;durP2;ratioP2
46889;SDS011;32625;51.080;16.970;2023-04-29T00:01:29;16.48;;;6.05;;
46889;SDS011;32625;51.080;16.970;2023-04-29T00:03:56;19.30;;;5.80;;
46889;SDS011;32625;51.080;16.970;2023-04-29T00:06:24;9.85;;;5.75;;
46889;SDS011;32625;51.080;16.970;2023-04-29T00:08:51;10.10;;;5.85;;
46889;SDS011;32625;51.080;16.970;2023-04-29T00:11:18;9.05;;;5.72;;
46889;SDS011;32625;51.080;16.970;2023-04-29T00:13:46;8.63;;;5.40;;
46889;SDS011;32625;51.080;16.970;2023-04-29T00:16:13;13.13;;;6.15;;
46889;SDS011;32625;51.080;16.970;2023-04-29T00:18:40;13.15;;;5.68;;
46889;SDS011;32625;51.080;16.970;2023-04-29T00:21:07;11.57;;;5.65;;
46889;SDS011;32625;51.080;16.970;2023-04-29T00:23:34;12.23;;;6.38;;
46889;SDS011;32625;51.080;16.970;2023-04-29T00:26:01;10.98;;;6.30;;
46889;SDS011;32625;51.080;16.970;2023-04-29T00:28:28;10.15;;;6.88;;
46889;SDS011;32625;51.080;16.970;2023-04-29T00:30:56;13.93;;;6.55;;
46889;SDS011;32625;51.080;16.970;2023-04-29T00:33:23;12.10;;;6.25;;
46889;SDS011;32625;51.080;16.970;2023-04-29T00:35:51;10.25;;;7.32;;
46889;SDS011;32625;51.080;16.970;2023-04-29T00:38:18;9.50;;;6.28;;
46889;SDS011;32625;51.080;16.970;2023-04-29T00:40:46;14.27;;;7.75;;
46889;SDS011;32625;51.080;16.970;2023-04-29T00:43:14;11.75;;;6.35;;
46889;SDS011;32625;51.080;16.970;2023-04-29T00:45:41;11.02;;;6.82;;
46889;SDS011;32625;51.080;16.970;2023-04-29T00:48:09;12.35;;;6.78;;
46889;SDS011;32625;51.080;16.970;2023-04-29T00:50:36;16.45;;;6.55;;
46889;SDS011;32625;51.080;16.970;2023-04-29T00:53:04;11.98;;;8.25;;
46889;SDS011;32625;51.080;16.970;2023-04-29T00:55:32;12.30;;;7.35;;
46889;SDS011;32625;51.080;16.970;2023-04-29T00:57:59;9.80;;;7.35;;
46889;SDS011;32625;51.080;16.970;2023-04-29T01:00:28;12.88;;;7.07;;
46889;SDS011;32625;51.080;16.970;2023-04-29T01:02:56;16.83;;;8.27;;
46889;SDS011;32625;51.080;16.970;2023-04-29T01:05:25;10.05;;;7.20;;
46889;SDS011;32625;51.080;16.970;2023-04-29T01:16:09;11.73;;;7.82;;
46889;SDS011;32625;51.080;16.970;2023-04-29T01:21:16;13.00;;;7.07;;
46889;SDS011;32625;51.080;16.970;2023-04-29T01:23:44;13.93;;;7.63;;
46889;SDS011;32625;51.080;16.970;2023-04-29T01:26:12;11.50;;;7.30;;
46889;SDS011;32625;51.080;16.970;2023-04-29T01:29:31;15.32;;;8.23;;
46889;SDS011;32625;51.080;16.970;2023-04-29T01:32:16;15.80;;;7.45;;
46889;SDS011;32625;51.080;16.970;2023-04-29T01:34:54;10.38;;;7.32;;
46889;SDS011;32625;51.080;16.970;2023-04-29T01:38:29;33.70;;;8.20;;
46889;SDS011;32625;51.080;16.970;2023-04-29T01:40:39;10.45;;;6.88;;
46889;SDS011;32625;51.080;16.970;2023-04-29T01:43:19;14.85;;;8.38;;
46889;SDS011;32625;51.080;16.970;2023-04-29T01:45:51;14.95;;;8.43;;
46889;SDS011;32625;51.080;16.970;2023-04-29T01:48:22;13.93;;;6.82;;
46889;SDS011;32625;51.080;16.970;2023-04-29T01:50:50;12.95;;;7.97;;
46889;SDS011;32625;51.080;16.970;2023-04-29T01:53:17;14.75;;;8.25;;
46889;SDS011;32625;51.080;16.970;2023-04-29T01:55:45;15.23;;;8.73;;
46889;SDS011;32625;51.080;16.970;2023-04-29T01:58:21;14.85;;;9.18;;
46889;SDS011;32625;51.080;16.970;2023-04-29T02:00:48;18.00;;;8.52;;
46889;SDS011;32625;51.080;16.970;2023-04-29T02:03:17;17.23;;;9.50;;
46889;SDS011;32625;51.080;16.970;2023-04-29T02:05:48;18.25;;;8.75;;
46889;SDS011;32625;51.080;16.970;2023-04-29T02:08:16;15.85;;;9.35;;
46889;SDS011;32625;51.080;16.970;2023-04-29T02:10:51;13.32;;;8.82;;
46889;SDS011;32625;51.080;16.970;2023-04-29T02:13:33;15.63;;;8.63;;
46889;SDS011;32625;51.080;16.970;2023-04-29T02:16:10;17.33;;;9.25;;
46889;SDS011;32625;51.080;16.970;2023-04-29T02:18:47;13.40;;;8.55;;
46889;SDS011;32625;51.080;16.970;2023-04-29T02:21:15;14.00;;;9.00;;
46889;SDS011;32625;51.080;16.970;2023-04-29T02:23:42;13.43;;;8.52;;
46889;SDS011;32625;51.080;16.970;2023-04-29T02:26:09;16.85;;;9.30;;
46889;SDS011;32625;51.080;16.970;2023-04-29T02:28:36;17.15;;;9.82;;
46889;SDS011;32625;51.080;16.970;2023-04-29T02:31:03;14.55;;;9.52;;
46889;SDS011;32625;51.080;16.970;2023-04-29T02:33:32;15.77;;;9.35;;
46889;SDS011;32625;51.080;16.970;2023-04-29T02:35:59;14.00;;;10.10;;
46889;SDS011;32625;51.080;16.970;2023-04-29T02:38:26;17.27;;;9.75;;
46889;SDS011;32625;51.080;16.970;2023-04-29T02:40:54;19.65;;;10.23;;
46889;SDS011;32625;51.080;16.970;2023-04-29T02:43:21;13.88;;;10.57;;
46889;SDS011;32625;51.080;16.970;2023-04-29T02:45:48;19.67;;;10.38;;
46889;SDS011;32625;51.080;16.970;2023-04-29T02:48:16;13.52;;;8.82;;
46889;SDS011;32625;51.080;16.970;2023-04-29T02:50:43;18.50;;;9.95;;
46889;SDS011;32625;51.080;16.970;2023-04-29T02:53:10;15.60;;;9.13;;
46889;SDS011;32625;51.080;16.970;2023-04-29T02:55:37;13.90;;;9.82;;
46889;SDS011;32625;51.080;16.970;2023-04-29T02:58:08;18.27;;;10.38;;
46889;SDS011;32625;51.080;16.970;2023-04-29T03:00:35;15.65;;;10.25;;
46889;SDS011;32625;51.080;16.970;2023-04-29T03:03:02;17.02;;;9.70;;
46889;SDS011;32625;51.080;16.970;2023-04-29T03:05:30;19.33;;;9.63;;
46889;SDS011;32625;51.080;16.970;2023-04-29T03:07:57;19.98;;;9.68;;
46889;SDS011;32625;51.080;16.970;2023-04-29T03:10:24;13.40;;;9.93;;
46889;SDS011;32625;51.080;16.970;2023-04-29T03:12:51;12.38;;;8.93;;
46889;SDS011;32625;51.080;16.970;2023-04-29T03:15:19;16.65;;;9.27;;
46889;SDS011;32625;51.080;16.970;2023-04-29T03:17:46;14.30;;;9.32;;
46889;SDS011;32625;51.080;16.970;2023-04-29T03:20:14;13.55;;;8.80;;
46889;SDS011;32625;51.080;16.970;2023-04-29T03:22:41;14.52;;;9.95;;
46889;SDS011;32625;51.080;16.970;2023-04-29T03:25:08;14.80;;;8.68;;
46889;SDS011;32625;51.080;16.970;2023-04-29T03:27:37;13.43;;;9.48;;
46889;SDS011;32625;51.080;16.970;2023-04-29T03:30:05;18.35;;;10.45;;
46889;SDS011;32625;51.080;16.970;2023-04-29T03:32:37;12.93;;;7.97;;
46889;SDS011;32625;51.080;16.970;2023-04-29T03:35:04;15.25;;;9.02;;
46889;SDS011;32625;51.080;16.970;2023-04-29T03:37:39;15.25;;;10.07;;
46889;SDS011;32625;51.080;16.970;2023-04-29T03:40:20;13.50;;;8.23;;
46889;SDS011;32625;51.080;16.970;2023-04-29T03:42:49;15.15;;;9.20;;
46889;SDS011;32625;51.080;16.970;2023-04-29T03:45:18;13.32;;;8.95;;
46889;SDS011;32625;51.080;16.970;2023-04-29T03:47:45;17.70;;;9.75;;
46889;SDS011;32625;51.080;16.970;2023-04-29T03:50:12;11.88;;;8.80;;
46889;SDS011;32625;51.080;16.970;2023-04-29T03:52:40;13.23;;;9.20;;
46889;SDS011;32625;51.080;16.970;2023-04-29T03:55:13;17.17;;;10.55;;
46889;SDS011;32625;51.080;16.970;2023-04-29T03:57:42;15.48;;;10.45;;
46889;SDS011;32625;51.080;16.970;2023-04-29T04:00:11;15.10;;;9.00;;
46889;SDS011;32625;51.080;16.970;2023-04-29T04:02:49;16.10;;;9.23;;
46889;SDS011;32625;51.080;16.970;2023-04-29T04:05:17;15.38;;;9.18;;
46889;SDS011;32625;51.080;16.970;2023-04-29T04:10:37;16.10;;;9.70;;
46889;SDS011;32625;51.080;16.970;2023-04-29T04:13:15;15.85;;;9.80;;
46889;SDS011;32625;51.080;16.970;2023-04-29T04:15:42;16.70;;;9.23;;
46889;SDS011;32625;51.080;16.970;2023-04-29T04:18:16;14.40;;;9.27;;
46889;SDS011;32625;51.080;16.970;2023-04-29T04:20:44;14.80;;;9.23;;
46889;SDS011;32625;51.080;16.970;2023-04-29T04:23:11;13.40;;;9.32;;
46889;SDS011;32625;51.080;16.970;2023-04-29T04:25:47;17.50;;;9.82;;
46889;SDS011;32625;51.080;16.970;2023-04-29T04:31:05;12.80;;;9.23;;
46889;SDS011;32625;51.080;16.970;2023-04-29T04:33:34;16.65;;;9.23;;
46889;SDS011;32625;51.080;16.970;2023-04-29T04:36:01;14.60;;;10.15;;
46889;SDS011;32625;51.080;16.970;2023-04-29T04:38:29;14.88;;;8.55;;
46889;SDS011;32625;51.080;16.970;2023-04-29T04:41:00;16.48;;;9.25;;
46889;SDS011;32625;51.080;16.970;2023-04-29T04:43:32;14.93;;;9.75;;
46889;SDS011;32625;51.080;16.970;2023-04-29T04:46:08;11.30;;;7.95;;
46889;SDS011;32625;51.080;16.970;2023-04-29T04:48:49;22.27;;;9.70;;
46889;SDS011;32625;51.080;16.970;2023-04-29T04:51:17;16.70;;;9.73;;
46889;SDS011;32625;51.080;16.970;2023-04-29T04:53:45;17.58;;;10.98;;
46889;SDS011;32625;51.080;16.970;2023-04-29T04:56:18;13.53;;;10.20;;
46889;SDS011;32625;51.080;16.970;2023-04-29T04:58:46;14.65;;;9.73;;
46889;SDS011;32625;51.080;16.970;2023-04-29T05:01:13;13.57;;;9.30;;
46889;SDS011;32625;51.080;16.970;2023-04-29T05:03:40;12.40;;;7.85;;
46889;SDS011;32625;51.080;16.970;2023-04-29T05:06:08;15.60;;;8.50;;
46889;SDS011;32625;51.080;16.970;2023-04-29T05:08:38;12.93;;;8.70;;
46889;SDS011;32625;51.080;16.970;2023-04-29T05:11:14;15.02;;;9.02;;
46889;SDS011;32625;51.080;16.970;2023-04-29T05:13:56;14.15;;;7.88;;
46889;SDS011;32625;51.080;16.970;2023-04-29T05:16:23;12.00;;;8.45;;
46889;SDS011;32625;51.080;16.970;2023-04-29T05:18:53;13.65;;;8.02;;
46889;SDS011;32625;51.080;16.970;2023-04-29T05:21:24;15.52;;;8.82;;
46889;SDS011;32625;51.080;16.970;2023-04-29T05:23:51;13.98;;;8.30;;
46889;SDS011;32625;51.080;16.970;2023-04-29T05:26:18;12.30;;;8.10;;
46889;SDS011;32625;51.080;16.970;2023-04-29T05:28:46;12.80;;;9.00;;
46889;SDS011;32625;51.080;16.970;2023-04-29T05:31:14;15.18;;;9.65;;
46889;SDS011;32625;51.080;16.970;2023-04-29T05:33:41;11.65;;;8.70;;
46889;SDS011;32625;51.080;16.970;2023-04-29T05:36:08;15.82;;;9.25;;
46889;SDS011;32625;51.080;16.970;2023-04-29T05:38:36;15.75;;;9.43;;
46889;SDS011;32625;51.080;16.970;2023-04-29T05:41:07;11.35;;;8.20;;
46889;SDS011;32625;51.080;16.970;2023-04-29T05:43:55;15.52;;;10.00;;
46889;SDS011;32625;51.080;16.970;2023-04-29T05:46:22;16.27;;;9.65;;
46889;SDS011;32625;51.080;16.970;2023-04-29T05:48:49;13.88;;;9.45;;
46889;SDS011;32625;51.080;16.970;2023-04-29T05:51:17;16.50;;;9.52;;
46889;SDS011;32625;51.080;16.970;2023-04-29T05:53:44;13.02;;;9.27;;
46889;SDS011;32625;51.080;16.970;2023-04-29T05:56:11;12.85;;;8.48;;
46889;SDS011;32625;51.080;16.970;2023-04-29T05:58:38;16.80;;;8.57;;
46889;SDS011;32625;51.080;16.970;2023-04-29T06:01:06;14.57;;;8.48;;
46889;SDS011;32625;51.080;16.970;2023-04-29T06:03:33;19.20;;;8.10;;
46889;SDS011;32625;51.080;16.970;2023-04-29T06:06:27;10.95;;;8.05;;
46889;SDS011;32625;51.080;16.970;2023-04-29T06:09:02;14.18;;;8.57;;
46889;SDS011;32625;51.080;16.970;2023-04-29T06:11:39;11.43;;;7.80;;
46889;SDS011;32625;51.080;16.970;2023-04-29T06:14:07;10.55;;;8.02;;
46889;SDS011;32625;51.080;16.970;2023-04-29T06:16:34;12.43;;;8.52;;
46889;SDS011;32625;51.080;16.970;2023-04-29T06:19:01;15.85;;;9.10;;
46889;SDS011;32625;51.080;16.970;2023-04-29T06:21:28;16.20;;;8.75;;
46889;SDS011;32625;51.080;16.970;2023-04-29T06:23:58;15.25;;;9.40;;
46889;SDS011;32625;51.080;16.970;2023-04-29T06:26:25;16.67;;;10.85;;
46889;SDS011;32625;51.080;16.970;2023-04-29T06:28:53;16.67;;;8.38;;
46889;SDS011;32625;51.080;16.970;2023-04-29T06:31:20;17.05;;;9.43;;
46889;SDS011;32625;51.080;16.970;2023-04-29T06:33:50;19.98;;;9.85;;
46889;SDS011;32625;51.080;16.970;2023-04-29T06:36:19;14.30;;;10.10;;
46889;SDS011;32625;51.080;16.970;2023-04-29T06:39:04;14.57;;;8.70;;
46889;SDS011;32625;51.080;16.970;2023-04-29T06:42:09;21.83;;;9.93;;
46889;SDS011;32625;51.080;16.970;2023-04-29T06:45:02;14.15;;;9.30;;
46889;SDS011;32625;51.080;16.970;2023-04-29T06:47:37;15.35;;;10.07;;
46889;SDS011;32625;51.080;16.970;2023-04-29T06:50:09;15.25;;;9.77;;
46889;SDS011;32625;51.080;16.970;2023-04-29T06:52:37;14.48;;;10.15;;
46889;SDS011;32625;51.080;16.970;2023-04-29T06:55:04;16.65;;;10.95;;
46889;SDS011;32625;51.080;16.970;2023-04-29T06:57:32;14.27;;;10.18;;
46889;SDS011;32625;51.080;16.970;2023-04-29T06:59:59;14.77;;;9.68;;
46889;SDS011;32625;51.080;16.970;2023-04-29T07:02:26;13.68;;;9.93;;
46889;SDS011;32625;51.080;16.970;2023-04-29T07:04:53;14.20;;;11.30;;
46889;SDS011;32625;51.080;16.970;2023-04-29T07:07:21;11.55;;;9.38;;
46889;SDS011;32625;51.080;16.970;2023-04-29T07:09:49;13.60;;;9.52;;
46889;SDS011;32625;51.080;16.970;2023-04-29T07:12:19;14.23;;;9.80;;
46889;SDS011;32625;51.080;16.970;2023-04-29T07:14:46;15.57;;;9.13;;
46889;SDS011;32625;51.080;16.970;2023-04-29T07:17:13;13.98;;;10.25;;
46889;SDS011;32625;51.080;16.970;2023-04-29T07:19:40;15.20;;;10.35;;
46889;SDS011;32625;51.080;16.970;2023-04-29T07:22:09;17.02;;;11.15;;
46889;SDS011;32625;51.080;16.970;2023-04-29T07:24:36;17.15;;;10.20;;
46889;SDS011;32625;51.080;16.970;2023-04-29T07:27:03;15.05;;;10.20;;
46889;SDS011;32625;51.080;16.970;2023-04-29T07:29:30;21.02;;;11.35;;
46889;SDS011;32625;51.080;16.970;2023-04-29T07:31:58;17.50;;;10.50;;
46889;SDS011;32625;51.080;16.970;2023-04-29T07:34:26;14.15;;;12.02;;
46889;SDS011;32625;51.080;16.970;2023-04-29T07:36:53;16.52;;;11.43;;
46889;SDS011;32625;51.080;16.970;2023-04-29T07:39:20;15.55;;;9.95;;
46889;SDS011;32625;51.080;16.970;2023-04-29T07:41:52;14.40;;;11.20;;
46889;SDS011;32625;51.080;16.970;2023-04-29T07:44:19;14.73;;;9.88;;
46889;SDS011;32625;51.080;16.970;2023-04-29T07:46:47;14.75;;;10.27;;
46889;SDS011;32625;51.080;16.970;2023-04-29T07:49:14;15.88;;;10.00;;
46889;SDS011;32625;51.080;16.970;2023-04-29T07:51:42;15.98;;;10.18;;
46889;SDS011;32625;51.080;16.970;2023-04-29T07:54:09;15.20;;;10.35;;
46889;SDS011;32625;51.080;16.970;2023-04-29T07:56:36;14.30;;;9.95;;
46889;SDS011;32625;51.080;16.970;2023-04-29T07:59:05;12.23;;;9.13;;
46889;SDS011;32625;51.080;16.970;2023-04-29T08:01:32;15.05;;;10.40;;
46889;SDS011;32625;51.080;16.970;2023-04-29T08:04:00;11.35;;;8.73;;
46889;SDS011;32625;51.080;16.970;2023-04-29T08:06:28;11.15;;;8.55;;
46889;SDS011;32625;51.080;16.970;2023-04-29T08:08:56;10.80;;;8.68;;
46889;SDS011;32625;51.080;16.970;2023-04-29T08:11:23;9.98;;;7.95;;
46889;SDS011;32625;51.080;16.970;2023-04-29T08:13:51;13.15;;;8.93;;
46889;SDS011;32625;51.080;16.970;2023-04-29T08:16:20;12.38;;;9.43;;
46889;SDS011;32625;51.080;16.970;2023-04-29T08:18:47;11.38;;;8.45;;
46889;SDS011;32625;51.080;16.970;2023-04-29T08:21:14;12.38;;;9.65;;
46889;SDS011;32625;51.080;16.970;2023-04-29T08:23:41;11.43;;;9.55;;
46889;SDS011;32625;51.080;16.970;2023-04-29T08:26:09;14.68;;;10.40;;
46889;SDS011;32625;51.080;16.970;2023-04-29T08:28:38;13.30;;;10.90;;
46889;SDS011;32625;51.080;16.970;2023-04-29T08:31:05;15.98;;;9.63;;
46889;SDS011;32625;51.080;16.970;2023-04-29T08:33:33;14.52;;;12.05;;
46889;SDS011;32625;51.080;16.970;2023-04-29T08:36:01;13.35;;;11.10;;
46889;SDS011;32625;51.080;16.970;2023-04-29T08:38:31;14.23;;;10.73;;
46889;SDS011;32625;51.080;16.970;2023-04-29T08:40:58;12.95;;;11.18;;
46889;SDS011;32625;51.080;16.970;2023-04-29T08:43:26;20.33;;;12.52;;
46889;SDS011;32625;51.080;16.970;2023-04-29T08:45:55;19.40;;;12.55;;
46889;SDS011;32625;51.080;16.970;2023-04-29T08:48:24;17.70;;;12.38;;
46889;SDS011;32625;51.080;16.970;2023-04-29T08:50:54;19.25;;;13.60;;
46889;SDS011;32625;51.080;16.970;2023-04-29T08:53:23;21.85;;;13.82;;
46889;SDS011;32625;51.080;16.970;2023-04-29T08:55:51;18.20;;;14.18;;
46889;SDS011;32625;51.080;16.970;2023-04-29T08:58:19;15.93;;;13.63;;
46889;SDS011;32625;51.080;16.970;2023-04-29T09:00:49;23.85;;;14.65;;
46889;SDS011;32625;51.080;16.970;2023-04-29T09:05:54;23.90;;;15.50;;
46889;SDS011;32625;51.080;16.970;2023-04-29T09:08:22;18.25;;;13.65;;
46889;SDS011;32625;51.080;16.970;2023-04-29T09:10:50;21.98;;;15.27;;
46889;SDS011;32625;51.080;16.970;2023-04-29T09:13:22;19.92;;;14.52;;
46889;SDS011;32625;51.080;16.970;2023-04-29T09:15:50;19.92;;;14.25;;
46889;SDS011;32625;51.080;16.970;2023-04-29T09:23:48;19.58;;;14.38;;
46889;SDS011;32625;51.080;16.970;2023-04-29T09:26:16;20.80;;;14.13;;
46889;SDS011;32625;51.080;16.970;2023-04-29T09:28:43;20.73;;;13.45;;
46889;SDS011;32625;51.080;16.970;2023-04-29T09:31:13;17.80;;;12.63;;
46889;SDS011;32625;51.080;16.970;2023-04-29T09:33:49;13.98;;;10.10;;
46889;SDS011;32625;51.080;16.970;2023-04-29T09:39:17;12.48;;;8.60;;
46889;SDS011;32625;51.080;16.970;2023-04-29T09:42:04;8.50;;;6.80;;
46889;SDS011;32625;51.080;16.970;2023-04-29T09:44:34;9.75;;;7.28;;
46889;SDS011;32625;51.080;16.970;2023-04-29T09:47:02;9.10;;;7.30;;
46889;SDS011;32625;51.080;16.970;2023-04-29T09:49:32;9.27;;;7.32;;
46889;SDS011;32625;51.080;16.970;2023-04-29T09:52:05;7.70;;;6.22;;
46889;SDS011;32625;51.080;16.970;2023-04-29T09:54:35;6.10;;;5.03;;
46889;SDS011;32625;51.080;16.970;2023-04-29T09:57:07;6.03;;;5.43;;
46889;SDS011;32625;51.080;16.970;2023-04-29T09:59:37;7.28;;;6.20;;
46889;SDS011;32625;51.080;16.970;2023-04-29T10:02:15;8.38;;;7.00;;
46889;SDS011;32625;51.080;16.970;2023-04-29T10:04:45;10.40;;;7.40;;
46889;SDS011;32625;51.080;16.970;2023-04-29T10:07:20;8.00;;;7.20;;
46889;SDS011;32625;51.080;16.970;2023-04-29T10:09:47;6.85;;;5.95;;
46889;SDS011;32625;51.080;16.970;2023-04-29T10:12:15;6.63;;;5.60;;
46889;SDS011;32625;51.080;16.970;2023-04-29T10:14:49;6.45;;;5.38;;
46889;SDS011;32625;51.080;16.970;2023-04-29T10:17:25;7.82;;;4.70;;
46889;SDS011;32625;51.080;16.970;2023-04-29T10:20:19;6.20;;;5.03;;
46889;SDS011;32625;51.080;16.970;2023-04-29T10:22:49;8.20;;;6.60;;
46889;SDS011;32625;51.080;16.970;2023-04-29T10:25:18;7.30;;;5.25;;
46889;SDS011;32625;51.080;16.970;2023-04-29T10:27:47;5.43;;;4.88;;
46889;SDS011;32625;51.080;16.970;2023-04-29T10:30:16;7.20;;;5.40;;
46889;SDS011;32625;51.080;16.970;2023-04-29T10:32:44;5.38;;;4.85;;
46889;SDS011;32625;51.080;16.970;2023-04-29T10:35:18;6.70;;;5.10;;
46889;SDS011;32625;51.080;16.970;2023-04-29T10:37:47;5.97;;;5.35;;
46889;SDS011;32625;51.080;16.970;2023-04-29T10:40:16;5.85;;;5.13;;
46889;SDS011;32625;51.080;16.970;2023-04-29T10:42:48;5.10;;;4.60;;
46889;SDS011;32625;51.080;16.970;2023-04-29T10:45:26;6.15;;;5.47;;
46889;SDS011;32625;51.080;16.970;2023-04-29T10:50:28;6.43;;;4.55;;
46889;SDS011;32625;51.080;16.970;2023-04-29T10:52:57;7.47;;;5.25;;
46889;SDS011;32625;51.080;16.970;2023-04-29T10:55:27;5.20;;;4.40;;
46889;SDS011;32625;51.080;16.970;2023-04-29T10:57:54;6.22;;;3.72;;
46889;SDS011;32625;51.080;16.970;2023-04-29T11:00:26;4.38;;;3.88;;
46889;SDS011;32625;51.080;16.970;2023-04-29T11:02:54;5.72;;;5.10;;
46889;SDS011;32625;51.080;16.970;2023-04-29T11:05:29;6.15;;;4.88;;
46889;SDS011;32625;51.080;16.970;2023-04-29T11:10:42;5.32;;;4.20;;
46889;SDS011;32625;51.080;16.970;2023-04-29T11:16:14;3.83;;;3.45;;
46889;SDS011;32625;51.080;16.970;2023-04-29T11:21:30;3.90;;;3.50;;
46889;SDS011;32625;51.080;16.970;2023-04-29T11:24:03;4.93;;;3.90;;
46889;SDS011;32625;51.080;16.970;2023-04-29T11:26:35;4.30;;;3.85;;
46889;SDS011;32625;51.080;16.970;2023-04-29T11:29:03;4.50;;;3.40;;
46889;SDS011;32625;51.080;16.970;2023-04-29T11:31:31;3.55;;;3.25;;
46889;SDS011;32625;51.080;16.970;2023-04-29T11:33:59;4.07;;;3.25;;
46889;SDS011;32625;51.080;16.970;2023-04-29T11:36:26;3.17;;;2.88;;
46889;SDS011;32625;51.080;16.970;2023-04-29T11:38:53;4.03;;;3.63;;
46889;SDS011;32625;51.080;16.970;2023-04-29T11:41:21;3.75;;;3.45;;
46889;SDS011;32625;51.080;16.970;2023-04-29T11:43:55;4.20;;;3.60;;
46889;SDS011;32625;51.080;16.970;2023-04-29T11:46:24;5.28;;;3.47;;
46889;SDS011;32625;51.080;16.970;2023-04-29T11:48:53;4.90;;;3.63;;
46889;SDS011;32625;51.080;16.970;2023-04-29T11:51:22;3.50;;;3.15;;
46889;SDS011;32625;51.080;16.970;2023-04-29T11:53:50;4.93;;;3.83;;
46889;SDS011;32625;51.080;16.970;2023-04-29T11:56:19;4.68;;;3.90;;
46889;SDS011;32625;51.080;16.970;2023-04-29T11:58:54;5.25;;;4.57;;
46889;SDS011;32625;51.080;16.970;2023-04-29T12:01:24;5.55;;;4.70;;
46889;SDS011;32625;51.080;16.970;2023-04-29T12:03:56;5.15;;;4.43;;
46889;SDS011;32625;51.080;16.970;2023-04-29T12:06:28;9.83;;;5.23;;
46889;SDS011;32625;51.080;16.970;2023-04-29T12:08:57;7.28;;;4.50;;
46889;SDS011;32625;51.080;16.970;2023-04-29T12:11:26;6.85;;;4.70;;
46889;SDS011;32625;51.080;16.970;2023-04-29T12:13:54;5.88;;;4.70;;
46889;SDS011;32625;51.080;16.970;2023-04-29T12:16:22;5.65;;;5.15;;
46889;SDS011;32625;51.080;16.970;2023-04-29T12:18:51;6.05;;;5.45;;
46889;SDS011;32625;51.080;16.970;2023-04-29T12:21:20;6.55;;;5.45;;
46889;SDS011;32625;51.080;16.970;2023-04-29T12:23:47;7.05;;;6.03;;
46889;SDS011;32625;51.080;16.970;2023-04-29T12:26:17;6.80;;;6.00;;
46889;SDS011;32625;51.080;16.970;2023-04-29T12:28:47;7.00;;;6.30;;
46889;SDS011;32625;51.080;16.970;2023-04-29T12:31:14;7.93;;;7.13;;
46889;SDS011;32625;51.080;16.970;2023-04-29T12:33:42;9.98;;;6.53;;
46889;SDS011;32625;51.080;16.970;2023-04-29T12:36:16;7.60;;;6.80;;
46889;SDS011;32625;51.080;16.970;2023-04-29T12:38:44;7.32;;;6.03;;
46889;SDS011;32625;51.080;16.970;2023-04-29T12:41:13;5.95;;;5.35;;
46889;SDS011;32625;51.080;16.970;2023-04-29T12:43:43;6.57;;;5.97;;
46889;SDS011;32625;51.080;16.970;2023-04-29T12:46:10;4.78;;;4.38;;
46889;SDS011;32625;51.080;16.970;2023-04-29T12:48:40;4.72;;;4.30;;
46889;SDS011;32625;51.080;16.970;2023-04-29T12:51:09;3.85;;;3.42;;
46889;SDS011;32625;51.080;16.970;2023-04-29T12:53:37;4.40;;;3.55;;
46889;SDS011;32625;51.080;16.970;2023-04-29T12:56:04;3.40;;;3.08;;
46889;SDS011;32625;51.080;16.970;2023-04-29T12:58:32;3.85;;;3.25;;
46889;SDS011;32625;51.080;16.970;2023-04-29T13:01:02;3.30;;;3.00;;
46889;SDS011;32625;51.080;16.970;2023-04-29T13:03:29;3.60;;;2.97;;
46889;SDS011;32625;51.080;16.970;2023-04-29T13:05:58;3.88;;;3.47;;
46889;SDS011;32625;51.080;16.970;2023-04-29T13:08:26;3.65;;;3.33;;
46889;SDS011;32625;51.080;16.970;2023-04-29T13:10:53;3.20;;;2.65;;
46889;SDS011;32625;51.080;16.970;2023-04-29T13:13:21;3.25;;;2.95;;
46889;SDS011;32625;51.080;16.970;2023-04-29T13:15:48;5.85;;;3.05;;
46889;SDS011;32625;51.080;16.970;2023-04-29T13:18:15;4.00;;;2.78;;
46889;SDS011;32625;51.080;16.970;2023-04-29T13:20:42;3.10;;;2.90;;
46889;SDS011;32625;51.080;16.970;2023-04-29T13:23:09;3.05;;;2.85;;
46889;SDS011;32625;51.080;16.970;2023-04-29T13:25:37;3.40;;;2.72;;
46889;SDS011;32625;51.080;16.970;2023-04-29T13:28:05;3.13;;;2.58;;
46889;SDS011;32625;51.080;16.970;2023-04-29T13:30:33;3.08;;;2.67;;
46889;SDS011;32625;51.080;16.970;2023-04-29T13:33:00;3.63;;;2.88;;
46889;SDS011;32625;51.080;16.970;2023-04-29T13:35:37;3.20;;;2.72;;
46889;SDS011;32625;51.080;16.970;2023-04-29T13:38:06;4.57;;;3.00;;
46889;SDS011;32625;51.080;16.970;2023-04-29T13:40:33;4.88;;;3.17;;
46889;SDS011;32625;51.080;16.970;2023-04-29T13:43:05;4.47;;;3.10;;
46889;SDS011;32625;51.080;16.970;2023-04-29T13:45:35;3.55;;;3.25;;
46889;SDS011;32625;51.080;16.970;2023-04-29T13:48:08;4.55;;;2.97;;
46889;SDS011;32625;51.080;16.970;2023-04-29T13:50:56;4.70;;;2.25;;
46889;SDS011;32625;51.080;16.970;2023-04-29T13:53:43;5.88;;;2.63;;
46889;SDS011;32625;51.080;16.970;2023-04-29T13:56:30;4.18;;;2.80;;
46889;SDS011;32625;51.080;16.970;2023-04-29T13:59:00;3.15;;;2.53;;
46889;SDS011;32625;51.080;16.970;2023-04-29T14:01:30;5.63;;;2.92;;
46889;SDS011;32625;51.080;16.970;2023-04-29T14:04:00;3.13;;;2.78;;
46889;SDS011;32625;51.080;16.970;2023-04-29T14:06:27;3.30;;;2.53;;
46889;SDS011;32625;51.080;16.970;2023-04-29T14:08:57;9.55;;;2.20;;
46889;SDS011;32625;51.080;16.970;2023-04-29T14:11:26;1.85;;;1.50;;
46889;SDS011;32625;51.080;16.970;2023-04-29T14:13:54;2.03;;;1.80;;
46889;SDS011;32625;51.080;16.970;2023-04-29T14:16:21;2.30;;;2.00;;
46889;SDS011;32625;51.080;16.970;2023-04-29T14:18:48;2.35;;;2.10;;
46889;SDS011;32625;51.080;16.970;2023-04-29T14:21:15;2.90;;;2.60;;
46889;SDS011;32625;51.080;16.970;2023-04-29T14:23:42;4.35;;;3.90;;
46889;SDS011;32625;51.080;16.970;2023-04-29T14:26:10;3.60;;;3.30;;
46889;SDS011;32625;51.080;16.970;2023-04-29T14:28:56;4.32;;;3.92;;
46889;SDS011;32625;51.080;16.970;2023-04-29T14:31:26;7.95;;;4.68;;
46889;SDS011;32625;51.080;16.970;2023-04-29T14:33:55;4.85;;;4.35;;
46889;SDS011;32625;51.080;16.970;2023-04-29T14:36:23;5.03;;;4.38;;
46889;SDS011;32625;51.080;16.970;2023-04-29T14:38:50;5.80;;;5.30;;
46889;SDS011;32625;51.080;16.970;2023-04-29T14:41:17;5.20;;;4.53;;
46889;SDS011;32625;51.080;16.970;2023-04-29T14:43:46;5.85;;;5.32;;
46889;SDS011;32625;51.080;16.970;2023-04-29T14:46:14;7.70;;;5.25;;
46889;SDS011;32625;51.080;16.970;2023-04-29T14:48:42;5.63;;;5.07;;
46889;SDS011;32625;51.080;16.970;2023-04-29T14:51:09;5.80;;;5.30;;
46889;SDS011;32625;51.080;16.970;2023-04-29T14:53:37;6.15;;;5.55;;
46889;SDS011;32625;51.080;16.970;2023-04-29T14:56:04;7.35;;;4.57;;
46889;SDS011;32625;51.080;16.970;2023-04-29T14:58:33;5.38;;;4.05;;
46889;SDS011;32625;51.080;16.970;2023-04-29T15:01:00;5.35;;;3.92;;
46889;SDS011;32625;51.080;16.970;2023-04-29T15:03:27;7.80;;;4.07;;
46889;SDS011;32625;51.080;16.970;2023-04-29T15:05:54;7.50;;;4.75;;
46889;SDS011;32625;51.080;16.970;2023-04-29T15:08:23;6.00;;;4.30;;
46889;SDS011;32625;51.080;16.970;2023-04-29T15:10:50;9.35;;;5.35;;
46889;SDS011;32625;51.080;16.970;2023-04-29T15:13:17;6.18;;;4.88;;
46889;SDS011;32625;51.080;16.970;2023-04-29T15:15:44;7.25;;;5.25;;
46889;SDS011;32625;51.080;16.970;2023-04-29T15:18:12;7.07;;;5.38;;